Time;durP1;ratioP1;P1;durP2;ratioP2;P2;SDS_P1;SDS_P2;PMS_P1;PMS_P2;Temp;Humidity;BMP_temperature;BMP_pressure;BME280_temperature;BME280_humidity;BME280_pressure;Samples;Min_cycle;Max_cycle;Signal;HPM_P1;HPM_P2
2022/01/22 00:02:08;;;;;;;12.00;2.00;;;6.50;99.90;;;;;;4994464;28;20233;-66
2022/01/22 00:04:37;;;;;;;10.53;2.10;;;6.50;99.90;;;;;;5001652;28;20248;-65
2022/01/22 00:07:06;;;;;;;10.83;1.90;;;6.50;99.90;;;;;;4994978;28;20237;-65
2022/01/22 00:09:51;;;;;;;10.17;2.27;;;6.50;99.90;;;;;;4989136;28;20244;-65
2022/01/22 00:12:44;;;;;;;9.53;2.40;;;6.50;99.90;;;;;;4994360;28;20241;-65
2022/01/22 00:15:13;;;;;;;8.50;1.80;;;6.50;99.90;;;;;;4995014;28;20234;-65
2022/01/22 00:17:41;;;;;;;15.87;2.13;;;6.50;99.90;;;;;;4994692;28;20242;-66
2022/01/22 00:20:12;;;;;;;5.00;1.83;;;6.50;99.90;;;;;;4994765;28;20242;-66
2022/01/22 00:22:42;;;;;;;7.53;2.00;;;6.50;99.90;;;;;;4994254;28;20304;-66
2022/01/22 00:25:12;;;;;;;9.57;1.93;;;6.50;99.90;;;;;;4994807;28;20617;-66
2022/01/22 00:27:44;;;;;;;10.47;2.03;;;6.50;99.90;;;;;;4994460;28;20249;-66
2022/01/22 00:30:14;;;;;;;8.03;2.23;;;6.50;99.90;;;;;;4994009;28;20246;-65
2022/01/22 00:32:42;;;;;;;7.63;1.87;;;6.50;99.90;;;;;;4994117;28;20273;-65
2022/01/22 00:35:12;;;;;;;11.17;2.70;;;6.50;99.90;;;;;;4994923;28;20278;-66
2022/01/22 00:37:42;;;;;;;8.20;2.30;;;6.50;99.90;;;;;;4994364;28;20237;-66
2022/01/22 00:40:11;;;;;;;7.83;2.30;;;6.50;99.90;;;;;;5009341;28;20308;-65
2022/01/22 00:42:42;;;;;;;12.63;2.77;;;6.50;99.90;;;;;;4992638;28;20336;-66
2022/01/22 00:45:11;;;;;;;8.60;2.37;;;6.50;99.90;;;;;;4994378;28;20300;-66
2022/01/22 00:47:40;;;;;;;11.07;2.73;;;6.50;99.90;;;;;;4993891;28;20589;-65
2022/01/22 00:50:12;;;;;;;10.70;2.60;;;6.50;99.90;;;;;;4994256;28;20242;-65
2022/01/22 00:52:40;;;;;;;7.90;2.60;;;6.50;99.90;;;;;;4993938;28;20297;-66
2022/01/22 00:55:09;;;;;;;11.73;3.00;;;6.50;99.90;;;;;;4991755;28;20234;-66
2022/01/22 00:57:38;;;;;;;11.43;3.03;;;6.50;99.90;;;;;;4993724;28;20730;-65
2022/01/22 01:00:11;;;;;;;11.90;2.70;;;6.50;99.90;;;;;;4997103;28;20319;-65
2022/01/22 01:02:45;;;;;;;11.23;2.60;;;6.50;99.90;;;;;;5002271;28;20239;-65
2022/01/22 01:05:15;;;;;;;8.73;2.50;;;6.40;99.90;;;;;;5008909;28;20598;-65
2022/01/22 01:07:44;;;;;;;10.90;2.73;;;6.50;99.90;;;;;;5008166;28;20590;-65
2022/01/22 01:10:16;;;;;;;10.47;2.57;;;6.50;99.90;;;;;;4985171;28;20235;-65
2022/01/22 01:12:45;;;;;;;9.73;2.57;;;6.50;99.90;;;;;;4978835;28;20244;-65
2022/01/22 01:15:35;;;;;;;7.87;2.30;;;6.50;99.90;;;;;;5008563;28;20238;-66
2022/01/22 01:32:09;;;;;;;7.20;2.20;;;6.50;99.90;;;;;;5008564;28;20233;-66
2022/01/22 01:32:14;;;;;;;10.10;1.97;;;6.40;99.90;;;;;;4988458;28;20234;-66
2022/01/22 01:34:44;;;;;;;6.40;1.80;;;6.40;99.90;;;;;;4991367;28;20373;-65
2022/01/22 01:37:15;;;;;;;6.63;1.50;;;6.40;99.90;;;;;;4993304;28;20245;-64
2022/01/22 01:39:45;;;;;;;7.43;1.93;;;6.40;99.90;;;;;;5007978;28;20240;-65
2022/01/22 01:42:17;;;;;;;10.13;1.83;;;6.40;99.90;;;;;;4993473;28;20789;-65
2022/01/22 01:44:47;;;;;;;6.73;1.90;;;6.30;99.90;;;;;;5007794;28;20237;-66
2022/01/22 01:47:28;;;;;;;7.17;2.03;;;6.30;99.90;;;;;;5007698;28;20246;-65
2022/01/22 01:49:56;;;;;;;7.77;1.90;;;6.30;99.90;;;;;;4993249;28;20698;-66
2022/01/22 01:52:33;;;;;;;9.33;1.80;;;6.30;99.90;;;;;;4991209;28;20637;-65
2022/01/22 01:55:04;;;;;;;8.63;1.83;;;6.30;99.90;;;;;;5007989;28;20238;-66
2022/01/22 01:57:38;;;;;;;8.47;2.27;;;6.20;99.90;;;;;;5007390;28;20694;-65
2022/01/22 02:00:18;;;;;;;8.70;2.30;;;6.20;99.90;;;;;;5007607;28;20324;-66
2022/01/22 02:02:54;;;;;;;6.63;1.77;;;6.20;99.90;;;;;;4990854;28;20257;-66
2022/01/22 02:05:26;;;;;;;8.57;1.87;;;6.20;99.90;;;;;;5009143;28;20364;-65
2022/01/22 02:07:59;;;;;;;8.30;2.00;;;6.20;99.90;;;;;;5005020;28;20242;-64
2022/01/22 02:10:43;;;;;;;8.73;2.50;;;6.20;99.90;;;;;;5007515;28;20244;-66
2022/01/22 02:24:25;;;;;;;7.80;2.37;;;6.20;99.90;;;;;;5006718;28;20269;-65
2022/01/22 02:26:54;;;;;;;10.23;2.57;;;6.20;99.90;;;;;;4992253;28;20254;-65
2022/01/22 02:29:28;;;;;;;6.83;2.27;;;6.10;99.90;;;;;;4992750;28;20764;-66
2022/01/22 02:32:47;;;;;;;9.87;2.50;;;6.20;99.90;;;;;;4989384;28;20241;-66
2022/01/22 02:35:23;;;;;;;9.07;2.57;;;6.20;99.90;;;;;;4990483;28;20698;-65
2022/01/22 02:37:58;;;;;;;8.87;2.10;;;6.20;99.90;;;;;;5007088;28;20234;-66
2022/01/22 02:40:29;;;;;;;9.67;2.43;;;6.10;99.90;;;;;;5006906;28;20634;-65
2022/01/22 02:42:59;;;;;;;9.43;2.20;;;6.10;99.90;;;;;;5006934;28;20296;-66
2022/01/22 02:45:28;;;;;;;8.77;2.70;;;6.10;99.90;;;;;;5006674;28;20268;-65
2022/01/22 02:47:56;;;;;;;5.00;2.23;;;6.10;99.90;;;;;;4991684;28;20238;-65
2022/01/22 02:50:24;;;;;;;9.90;2.60;;;6.10;99.90;;;;;;5006907;28;20642;-66
2022/01/22 02:52:54;;;;;;;7.57;2.40;;;6.10;99.90;;;;;;5008460;28;20770;-66
2022/01/22 02:55:22;;;;;;;10.23;2.80;;;6.10;99.90;;;;;;5006666;28;20321;-66
2022/01/22 02:57:52;;;;;;;9.43;3.40;;;6.10;99.90;;;;;;5006500;28;20233;-65
2022/01/22 03:00:22;;;;;;;9.70;3.00;;;6.10;99.90;;;;;;5024006;28;20240;-66
2022/01/22 03:02:51;;;;;;;7.50;2.63;;;6.10;99.90;;;;;;5012683;28;20237;-66
2022/01/22 03:05:24;;;;;;;10.93;3.37;;;6.10;99.90;;;;;;5006512;28;20241;-65
2022/01/22 03:07:56;;;;;;;9.17;2.80;;;6.10;99.90;;;;;;4991399;28;20234;-66
2022/01/22 03:10:26;;;;;;;6.63;2.90;;;6.10;99.90;;;;;;4991464;28;20245;-66
2022/01/22 03:16:06;;;;;;;7.63;3.10;;;6.10;99.90;;;;;;4972003;28;20237;-66
2022/01/22 03:18:42;;;;;;;9.97;3.27;;;6.10;99.90;;;;;;5005491;28;20229;-65
2022/01/22 03:21:26;;;;;;;9.80;3.40;;;6.10;99.90;;;;;;4991541;28;20238;-66
2022/01/22 03:29:34;;;;;;;7.90;2.53;;;6.10;99.90;;;;;;5005689;28;20722;-65
2022/01/22 03:32:05;;;;;;;6.10;2.43;;;6.10;99.90;;;;;;4990021;28;20259;-66
2022/01/22 03:34:39;;;;;;;7.17;2.10;;;6.00;99.90;;;;;;4990943;28;20291;-66
2022/01/22 03:37:08;;;;;;;6.03;2.07;;;6.00;99.90;;;;;;5006211;28;20612;-66
2022/01/22 03:39:38;;;;;;;5.83;2.17;;;6.00;99.90;;;;;;4990664;28;20841;-66
2022/01/22 03:42:08;;;;;;;4.87;1.80;;;6.10;99.90;;;;;;5006145;28;20690;-66
2022/01/22 03:44:36;;;;;;;4.97;2.43;;;6.10;99.90;;;;;;5005589;28;20233;-65
2022/01/22 03:47:05;;;;;;;2.97;1.83;;;6.10;99.90;;;;;;5006065;28;20237;-66
2022/01/22 03:49:34;;;;;;;5.10;2.27;;;6.10;99.90;;;;;;4989306;28;20254;-66
2022/01/22 03:52:03;;;;;;;5.67;2.00;;;6.10;99.90;;;;;;5006144;28;20241;-66
2022/01/22 03:54:32;;;;;;;7.57;3.33;;;6.10;99.90;;;;;;4990729;28;20238;-66
2022/01/22 03:57:02;;;;;;;8.27;2.77;;;6.10;99.90;;;;;;4991394;28;20253;-66
2022/01/22 03:59:39;;;;;;;9.57;3.10;;;6.00;99.90;;;;;;5017141;28;20297;-65
2022/01/22 04:03:01;;;;;;;7.37;2.90;;;6.00;99.90;;;;;;5007907;28;20243;-65
2022/01/22 04:05:29;;;;;;;10.50;3.50;;;6.00;99.90;;;;;;4971224;28;20246;-65
2022/01/22 04:10:34;;;;;;;9.93;3.63;;;6.00;99.90;;;;;;4971388;28;20249;-66
2022/01/22 04:13:06;;;;;;;11.93;3.40;;;6.00;99.90;;;;;;4973061;28;20226;-66
2022/01/22 04:15:38;;;;;;;10.10;3.30;;;6.00;99.90;;;;;;4969883;28;20489;-65
2022/01/22 04:26:32;;;;;;;13.00;3.73;;;6.00;99.90;;;;;;4968633;28;20244;-66
2022/01/22 04:29:01;;;;;;;8.70;3.23;;;6.00;99.90;;;;;;4993147;28;20368;-66
2022/01/22 04:31:29;;;;;;;8.37;2.77;;;6.00;99.90;;;;;;5012475;28;20487;-66
2022/01/22 04:33:58;;;;;;;7.20;2.80;;;6.00;99.90;;;;;;5000843;28;20295;-66
2022/01/22 04:36:26;;;;;;;7.80;3.03;;;6.00;99.90;;;;;;4994210;28;20620;-65
2022/01/22 04:38:54;;;;;;;10.13;2.70;;;6.00;99.90;;;;;;4994011;28;20237;-65
2022/01/22 04:41:22;;;;;;;7.10;2.77;;;6.00;99.90;;;;;;4994276;28;20238;-66
2022/01/22 04:43:57;;;;;;;4.97;2.10;;;6.00;99.90;;;;;;4994022;28;20710;-65
2022/01/22 04:46:48;;;;;;;6.73;2.20;;;6.00;99.90;;;;;;5008924;28;20268;-65
2022/01/22 04:52:30;;;;;;;5.00;1.70;;;6.00;99.90;;;;;;5008628;28;20244;-66
2022/01/22 04:55:01;;;;;;;4.57;1.90;;;6.00;99.90;;;;;;4987211;28;20241;-66
2022/01/22 04:57:38;;;;;;;4.83;1.77;;;6.00;99.90;;;;;;4991192;28;20580;-65
2022/01/22 05:00:10;;;;;;;4.83;1.27;;;6.00;99.90;;;;;;5020166;28;20229;-66
2022/01/22 05:03:00;;;;;;;6.93;1.57;;;6.00;99.90;;;;;;4987233;28;20240;-66
2022/01/22 05:05:56;;;;;;;5.60;1.60;;;6.00;99.90;;;;;;5008594;28;20253;-66
2022/01/22 05:08:35;;;;;;;5.30;1.97;;;6.00;99.90;;;;;;5008371;28;20243;-66
2022/01/22 05:11:08;;;;;;;5.53;1.60;;;6.00;99.90;;;;;;5008750;28;20249;-66
2022/01/22 05:13:38;;;;;;;6.53;2.20;;;6.00;99.90;;;;;;5008360;28;20237;-66
2022/01/22 05:16:09;;;;;;;8.57;2.10;;;6.00;99.90;;;;;;5008649;28;20238;-66
2022/01/22 05:18:48;;;;;;;9.30;2.27;;;6.00;99.90;;;;;;5008341;28;20233;-66
2022/01/22 05:21:17;;;;;;;9.47;2.03;;;6.00;99.90;;;;;;5007992;28;20246;-66
2022/01/22 05:23:47;;;;;;;6.17;2.10;;;6.00;99.90;;;;;;5008141;28;20295;-66
2022/01/22 05:26:41;;;;;;;8.07;2.17;;;6.00;99.90;;;;;;5008319;28;20300;-65
2022/01/22 05:29:24;;;;;;;9.00;2.37;;;6.00;99.90;;;;;;4996908;28;20493;-65
2022/01/22 05:32:25;;;;;;;8.57;2.20;;;6.00;99.90;;;;;;5012874;28;20585;-66
2022/01/22 05:38:00;;;;;;;9.17;2.50;;;6.00;99.90;;;;;;4978729;28;20480;-66
2022/01/22 05:40:29;;;;;;;12.00;3.13;;;6.00;99.90;;;;;;5007674;28;20245;-66
2022/01/22 05:42:57;;;;;;;8.37;2.90;;;6.00;99.90;;;;;;4992608;28;20246;-66
2022/01/22 05:45:26;;;;;;;10.13;3.03;;;6.00;99.90;;;;;;5007815;28;20246;-66
2022/01/22 05:47:55;;;;;;;7.30;2.47;;;6.00;99.90;;;;;;4993098;28;20308;-66
2022/01/22 05:50:32;;;;;;;12.30;3.07;;;6.00;99.90;;;;;;5007824;28;20504;-65
2022/01/22 05:53:04;;;;;;;13.87;3.00;;;6.00;99.90;;;;;;4994769;28;20238;-66
2022/01/22 05:59:35;;;;;;;7.97;3.13;;;6.00;99.90;;;;;;5007621;28;20245;-65
2022/01/22 06:01:35;;;;;;;8.20;3.30;;;6.10;99.90;;;;;;5010816;28;20721;-66
2022/01/22 06:04:13;;;;;;;11.43;3.33;;;6.10;99.90;;;;;;4996887;28;20689;-65
2022/01/22 06:06:43;;;;;;;13.43;3.63;;;6.10;99.90;;;;;;5007569;28;20238;-66
2022/01/22 06:09:12;;;;;;;10.60;3.87;;;6.10;99.90;;;;;;4991434;28;20241;-66
2022/01/22 06:11:53;;;;;;;9.97;4.33;;;6.10;99.90;;;;;;5007566;28;20685;-65
2022/01/22 06:14:25;;;;;;;10.33;3.50;;;6.10;99.90;;;;;;5009626;28;20694;-64
2022/01/22 06:16:53;;;;;;;11.83;3.67;;;6.10;99.90;;;;;;5007246;28;20499;-66
2022/01/22 06:19:57;;;;;;;15.20;3.70;;;6.10;99.90;;;;;;4992902;28;20233;-66
2022/01/22 06:22:27;;;;;;;10.60;3.50;;;6.10;99.90;;;;;;5016484;28;20241;-65
2022/01/22 06:24:55;;;;;;;10.97;3.37;;;6.10;99.90;;;;;;4994769;28;20230;-65
2022/01/22 06:27:24;;;;;;;10.53;3.50;;;6.10;99.90;;;;;;4971210;28;20242;-65
2022/01/22 06:29:52;;;;;;;11.43;3.17;;;6.10;99.90;;;;;;4972802;28;20239;-66
2022/01/22 06:32:22;;;;;;;8.40;2.87;;;6.10;99.90;;;;;;4973014;28;20321;-65
2022/01/22 06:34:51;;;;;;;7.60;2.97;;;6.10;99.90;;;;;;4967080;28;20237;-66
2022/01/22 06:37:19;;;;;;;8.43;2.77;;;6.10;99.90;;;;;;4993138;28;20242;-66
2022/01/22 06:43:04;;;;;;;10.17;2.20;;;6.10;99.90;;;;;;4991929;28;20260;-66
2022/01/22 06:45:55;;;;;;;6.73;2.03;;;6.10;99.90;;;;;;4993768;28;20257;-66
2022/01/22 06:48:23;;;;;;;10.00;2.00;;;6.10;99.90;;;;;;5006830;28;20642;-66
2022/01/22 06:51:22;;;;;;;11.73;2.60;;;6.10;99.90;;;;;;4992756;28;20237;-64
2022/01/22 06:53:52;;;;;;;11.90;2.20;;;6.10;99.90;;;;;;5011100;28;20234;-66
2022/01/22 06:56:24;;;;;;;10.40;2.20;;;6.10;99.90;;;;;;4986888;28;20257;-66
2022/01/22 06:59:18;;;;;;;10.93;2.33;;;6.10;99.90;;;;;;4990931;28;20261;-65
2022/01/22 07:01:49;;;;;;;8.40;1.97;;;6.10;99.90;;;;;;4987473;28;20643;-66
2022/01/22 07:04:21;;;;;;;8.57;1.93;;;6.10;99.90;;;;;;5000698;28;20239;-66
2022/01/22 07:07:19;;;;;;;10.80;2.67;;;6.10;99.90;;;;;;4980581;28;20645;-66
2022/01/22 07:09:48;;;;;;;6.40;1.60;;;6.10;99.90;;;;;;5007249;28;20263;-66
2022/01/22 07:12:18;;;;;;;11.90;2.50;;;6.10;99.90;;;;;;4984102;28;20238;-65
2022/01/22 07:14:49;;;;;;;9.00;1.93;;;6.10;99.90;;;;;;5004405;28;20245;-65
2022/01/22 07:17:19;;;;;;;9.77;2.37;;;6.10;99.90;;;;;;4982889;28;20238;-65
2022/01/22 07:19:53;;;;;;;15.03;2.53;;;6.10;99.90;;;;;;5002478;28;20278;-66
2022/01/22 07:22:37;;;;;;;17.03;3.37;;;6.10;99.90;;;;;;4982607;28;20229;-65
2022/01/22 07:25:24;;;;;;;16.40;3.40;;;6.10;99.90;;;;;;4987482;28;20279;-65
2022/01/22 07:27:56;;;;;;;9.93;3.90;;;6.10;99.90;;;;;;4989629;28;20246;-66
2022/01/22 07:30:25;;;;;;;16.37;5.13;;;6.10;99.90;;;;;;4987815;28;20710;-66
2022/01/22 07:32:54;;;;;;;15.53;4.97;;;6.10;99.90;;;;;;4987408;28;20268;-66
2022/01/22 07:35:22;;;;;;;12.80;4.50;;;6.10;99.90;;;;;;4987021;28;20481;-66
2022/01/22 07:38:03;;;;;;;20.33;5.67;;;6.00;99.90;;;;;;4999710;28;20658;-66
2022/01/22 07:40:31;;;;;;;17.03;5.40;;;6.00;99.90;;;;;;4992112;28;20236;-65
2022/01/22 07:43:06;;;;;;;17.13;5.47;;;6.00;99.90;;;;;;4989349;28;20247;-65
2022/01/22 07:46:08;;;;;;;16.77;5.33;;;6.00;99.90;;;;;;4982494;28;20229;-65
2022/01/22 07:48:59;;;;;;;20.17;5.20;;;6.00;99.90;;;;;;5008016;28;20599;-66
2022/01/22 07:51:48;;;;;;;18.97;5.77;;;6.00;99.90;;;;;;4970849;28;20231;-66
2022/01/22 07:54:16;;;;;;;19.50;5.47;;;6.10;99.90;;;;;;4971263;28;20722;-66
2022/01/22 07:56:45;;;;;;;19.83;6.13;;;6.10;99.90;;;;;;4984219;28;20262;-66
2022/01/22 07:59:15;;;;;;;19.33;6.00;;;6.10;99.90;;;;;;4983356;28;20238;-65
2022/01/22 08:01:48;;;;;;;17.93;6.27;;;6.10;99.90;;;;;;4973848;28;20492;-66
2022/01/22 08:04:24;;;;;;;14.57;5.67;;;6.10;99.90;;;;;;4971746;28;20234;-66
2022/01/22 08:06:58;;;;;;;16.07;5.37;;;6.10;99.90;;;;;;4975278;28;20606;-67
2022/01/22 08:09:27;;;;;;;13.60;5.63;;;6.10;99.90;;;;;;4978705;28;20364;-65
2022/01/22 08:12:00;;;;;;;19.37;5.50;;;6.20;99.90;;;;;;5013223;28;20708;-66
2022/01/22 08:14:30;;;;;;;16.70;5.67;;;6.20;99.90;;;;;;4994455;28;20241;-65
2022/01/22 08:16:58;;;;;;;13.97;4.73;;;6.20;99.90;;;;;;5012272;28;20312;-66
2022/01/22 08:19:32;;;;;;;23.87;5.60;;;6.20;99.90;;;;;;4995424;28;20245;-66
2022/01/22 08:22:02;;;;;;;15.13;5.93;;;6.20;99.90;;;;;;4989379;28;20717;-66
2022/01/22 08:24:52;;;;;;;12.73;5.23;;;6.20;99.90;;;;;;4985379;28;20240;-65
2022/01/22 08:27:33;;;;;;;13.40;4.77;;;6.20;99.90;;;;;;5001138;28;20250;-66
2022/01/22 08:30:04;;;;;;;11.90;4.27;;;6.20;99.90;;;;;;4995962;28;20242;-66
2022/01/22 08:32:56;;;;;;;13.13;5.10;;;6.30;99.90;;;;;;5014472;28;20247;-65
2022/01/22 08:38:08;;;;;;;12.67;5.17;;;6.30;99.90;;;;;;4967593;28;20716;-65
2022/01/22 08:40:37;;;;;;;11.63;4.80;;;6.30;99.90;;;;;;4984773;28;20238;-65
2022/01/22 08:43:05;;;;;;;11.97;5.33;;;6.30;99.90;;;;;;4972548;28;20242;-65
2022/01/22 08:45:36;;;;;;;13.80;4.90;;;6.30;99.90;;;;;;4973087;28;20238;-65
2022/01/22 08:48:05;;;;;;;13.53;4.90;;;6.30;99.90;;;;;;4989995;28;20312;-65
2022/01/22 08:50:36;;;;;;;13.40;5.23;;;6.30;99.90;;;;;;4975406;28;20291;-65
2022/01/22 08:53:05;;;;;;;11.70;4.60;;;6.30;99.90;;;;;;4998612;28;20236;-65
2022/01/22 08:55:34;;;;;;;12.23;4.27;;;6.30;99.90;;;;;;5007716;28;20245;-65
2022/01/22 08:58:03;;;;;;;12.77;4.00;;;6.30;99.90;;;;;;4991524;28;20249;-66
2022/01/22 09:00:39;;;;;;;12.97;4.57;;;6.40;99.90;;;;;;5008750;28;20263;-65
2022/01/22 09:03:19;;;;;;;12.60;4.57;;;6.40;99.90;;;;;;5008420;28;20264;-65
2022/01/22 09:06:04;;;;;;;10.10;4.23;;;6.40;99.90;;;;;;5008820;28;26338;-65
2022/01/22 09:09:09;;;;;;;8.83;3.37;;;6.40;99.90;;;;;;5008985;28;20230;-65
2022/01/22 09:12:00;;;;;;;7.90;3.57;;;6.40;99.90;;;;;;4993104;28;20241;-65
2022/01/22 09:14:38;;;;;;;10.40;3.40;;;6.40;99.90;;;;;;4993599;28;20233;-66
2022/01/22 09:17:08;;;;;;;6.43;3.47;;;6.40;99.90;;;;;;4992811;28;20252;-66
2022/01/22 09:19:37;;;;;;;9.67;3.70;;;6.40;99.90;;;;;;5008154;28;20234;-65
2022/01/22 09:22:10;;;;;;;7.40;3.37;;;6.50;99.90;;;;;;4993540;28;20288;-65
2022/01/22 09:24:40;;;;;;;6.60;3.03;;;6.50;99.90;;;;;;5006647;28;20237;-66
2022/01/22 09:27:12;;;;;;;7.40;3.33;;;6.60;99.90;;;;;;4992168;28;20244;-66
2022/01/22 09:29:41;;;;;;;9.97;3.57;;;6.60;99.90;;;;;;5000220;28;20309;-68
2022/01/22 09:32:11;;;;;;;7.80;3.47;;;6.60;99.90;;;;;;5008456;28;20236;-66
2022/01/22 09:35:09;;;;;;;11.80;3.53;;;6.60;99.90;;;;;;5006317;28;20241;-65
2022/01/22 09:37:47;;;;;;;5.23;3.90;;;6.60;99.90;;;;;;5001501;28;20310;-65
2022/01/22 09:40:39;;;;;;;6.35;4.53;;;6.60;99.90;;;;;;4970215;28;20443;-66
2022/01/22 09:43:32;;;;;;;7.07;3.20;;;6.60;99.90;;;;;;4997079;28;20695;-66
2022/01/22 09:46:25;;;;;;;6.23;3.60;;;6.50;99.90;;;;;;4990297;28;20330;-66
2022/01/22 09:49:10;;;;;;;7.10;3.43;;;6.50;99.90;;;;;;5007858;28;20261;-67
2022/01/22 09:51:57;;;;;;;3.03;2.23;;;6.50;99.90;;;;;;4992993;28;20353;-65
2022/01/22 09:54:45;;;;;;;5.63;2.57;;;6.60;99.90;;;;;;4992391;28;20814;-66
2022/01/22 09:57:34;;;;;;;3.80;3.13;;;6.50;99.90;;;;;;4992706;28;20300;-65
2022/01/22 10:00:10;;;;;;;4.97;3.43;;;6.60;99.90;;;;;;4992206;28;20233;-66
2022/01/22 10:02:48;;;;;;;5.50;3.23;;;6.60;99.90;;;;;;5006855;28;20245;-66
2022/01/22 10:05:43;;;;;;;6.33;2.80;;;6.60;99.90;;;;;;4995483;28;20644;-66
2022/01/22 10:08:34;;;;;;;5.73;3.37;;;6.60;99.90;;;;;;4988026;28;20265;-66
2022/01/22 10:11:34;;;;;;;7.80;3.10;;;6.70;99.90;;;;;;4998223;28;20234;-65
2022/01/22 10:14:11;;;;;;;7.57;3.30;;;6.70;99.90;;;;;;4991724;28;20237;-65
2022/01/22 10:16:40;;;;;;;7.87;3.90;;;6.70;99.90;;;;;;5002721;28;20237;-65
2022/01/22 10:19:15;;;;;;;6.97;3.40;;;6.70;99.90;;;;;;4995518;28;20234;-66
2022/01/22 10:21:47;;;;;;;6.00;3.33;;;6.70;99.90;;;;;;4988727;28;20702;-65
2022/01/22 10:24:37;;;;;;;6.30;3.13;;;6.70;99.90;;;;;;4991302;28;20249;-65
2022/01/22 10:27:29;;;;;;;7.20;2.80;;;6.70;99.90;;;;;;4968162;28;20321;-66
2022/01/22 10:30:02;;;;;;;5.03;2.77;;;6.70;99.90;;;;;;4978432;28;20287;-66
2022/01/22 10:32:42;;;;;;;4.80;2.20;;;6.80;99.90;;;;;;4996866;28;20317;-66
2022/01/22 10:35:30;;;;;;;4.00;2.30;;;6.80;99.90;;;;;;4991836;28;20285;-65
2022/01/22 10:38:43;;;;;;;3.03;2.00;;;6.80;99.90;;;;;;4991459;28;20240;-66
2022/01/22 10:41:13;;;;;;;3.37;1.93;;;6.80;99.90;;;;;;5007530;28;20624;-66
2022/01/22 10:43:51;;;;;;;2.30;1.90;;;6.90;99.90;;;;;;4990720;28;20249;-66
2022/01/22 10:46:31;;;;;;;2.53;1.90;;;6.90;99.90;;;;;;4991727;28;20245;-66
2022/01/22 10:49:02;;;;;;;1.63;1.53;;;7.00;99.90;;;;;;4998487;28;20594;-66
2022/01/22 10:51:31;;;;;;;2.80;1.50;;;6.90;99.90;;;;;;4991504;28;20237;-65
2022/01/22 10:54:02;;;;;;;1.30;1.20;;;6.90;99.90;;;;;;4991770;28;20664;-66
2022/01/22 10:56:32;;;;;;;1.77;1.10;;;6.90;99.90;;;;;;4991561;28;20572;-66
2022/01/22 10:59:04;;;;;;;1.20;0.90;;;6.90;99.90;;;;;;4998361;28;20321;-65
2022/01/22 11:01:46;;;;;;;1.17;1.00;;;6.90;99.90;;;;;;4991489;28;20284;-66
2022/01/22 11:04:18;;;;;;;1.63;1.03;;;6.90;99.90;;;;;;4986928;28;20245;-65
2022/01/22 11:06:57;;;;;;;4.17;1.27;;;6.90;99.90;;;;;;4991248;28;20265;-65
2022/01/22 11:09:48;;;;;;;4.40;1.63;;;6.90;99.90;;;;;;4990778;28;20253;-65
2022/01/22 11:12:16;;;;;;;6.97;1.40;;;6.90;99.90;;;;;;4991752;28;20246;-66
2022/01/22 11:14:45;;;;;;;2.70;1.40;;;7.00;99.90;;;;;;4991379;28;21282;-65
2022/01/22 11:17:14;;;;;;;7.03;2.00;;;7.00;99.90;;;;;;4991571;28;20241;-64
2022/01/22 11:19:47;;;;;;;5.93;1.60;;;7.00;99.90;;;;;;4995338;28;20284;-66
2022/01/22 11:22:16;;;;;;;3.73;1.80;;;7.00;99.90;;;;;;4995193;28;20241;-65
2022/01/22 11:24:48;;;;;;;4.97;2.03;;;7.00;99.90;;;;;;4991555;28;20246;-66
2022/01/22 11:27:18;;;;;;;5.93;1.90;;;7.00;99.90;;;;;;4991380;28;20673;-65
2022/01/22 11:29:49;;;;;;;4.57;1.90;;;7.00;99.90;;;;;;4991233;28;20238;-66
2022/01/22 11:32:20;;;;;;;4.60;2.10;;;7.00;99.90;;;;;;4992397;28;20245;-66
2022/01/22 11:34:50;;;;;;;3.33;1.83;;;7.10;99.90;;;;;;4997463;28;20292;-66
2022/01/22 11:37:24;;;;;;;2.93;1.40;;;7.10;99.90;;;;;;4991075;28;20250;-66
2022/01/22 11:40:12;;;;;;;4.37;1.93;;;7.10;99.90;;;;;;4984673;28;20325;-66
2022/01/22 11:42:58;;;;;;;5.17;1.80;;;7.10;99.90;;;;;;4987008;28;20257;-66
2022/01/22 11:45:29;;;;;;;2.47;1.60;;;7.10;99.90;;;;;;4991012;28;20587;-66
2022/01/22 11:48:12;;;;;;;3.50;1.60;;;7.00;99.90;;;;;;4991061;28;20329;-66
2022/01/22 11:50:42;;;;;;;3.03;1.40;;;7.00;99.90;;;;;;4992406;28;20237;-66
2022/01/22 11:53:29;;;;;;;1.83;1.00;;;7.00;99.90;;;;;;4999235;28;20237;-66
2022/01/22 11:56:27;;;;;;;1.27;0.77;;;7.00;99.90;;;;;;4985455;28;20316;-66
2022/01/22 11:59:24;;;;;;;2.10;0.77;;;7.00;99.90;;;;;;4987783;28;20238;-66
2022/01/22 12:01:59;;;;;;;0.83;0.80;;;7.00;99.90;;;;;;4996031;28;20240;-65
2022/01/22 12:04:29;;;;;;;1.30;1.00;;;7.10;99.90;;;;;;4991947;28;20252;-66
2022/01/22 12:07:19;;;;;;;1.13;0.87;;;7.10;99.90;;;;;;4990867;28;20241;-66
2022/01/22 12:10:17;;;;;;;2.90;1.10;;;7.10;99.90;;;;;;4990108;28;20321;-66
2022/01/22 12:15:53;;;;;;;3.40;0.97;;;7.10;99.90;;;;;;4991096;28;20248;-66
2022/01/22 12:18:33;;;;;;;1.13;0.90;;;7.10;99.90;;;;;;4990566;28;20234;-65
2022/01/22 12:23:55;;;;;;;1.27;1.00;;;7.10;99.90;;;;;;4981341;28;20262;-66
2022/01/22 12:26:52;;;;;;;3.17;1.07;;;7.10;99.90;;;;;;4971276;28;20297;-66
2022/01/22 12:29:41;;;;;;;1.87;1.43;;;7.10;99.90;;;;;;4977207;28;20297;-66
2022/01/22 12:32:33;;;;;;;2.63;1.03;;;7.00;99.90;;;;;;4987205;28;20272;-65
2022/01/22 12:35:08;;;;;;;2.17;1.00;;;7.00;99.90;;;;;;4990749;28;20258;-66
2022/01/22 12:40:34;;;;;;;1.50;1.00;;;6.90;99.90;;;;;;4990482;28;20241;-66
2022/01/22 12:43:09;;;;;;;2.17;1.10;;;7.00;99.90;;;;;;4990659;28;20238;-66
2022/01/22 12:45:44;;;;;;;1.43;1.00;;;7.00;99.90;;;;;;4990619;28;20705;-66
2022/01/22 12:48:14;;;;;;;1.97;1.10;;;7.00;99.90;;;;;;4990556;28;20288;-65
2022/01/22 12:50:42;;;;;;;1.60;0.87;;;7.00;99.90;;;;;;5007548;28;20240;-66
2022/01/22 12:53:16;;;;;;;2.17;0.90;;;7.00;99.90;;;;;;5007179;28;20662;-66
2022/01/22 12:58:38;;;;;;;1.77;0.70;;;7.00;99.90;;;;;;4986367;28;20270;-66
2022/01/22 13:01:23;;;;;;;2.30;0.80;;;7.00;99.90;;;;;;4992741;28;20277;-65
2022/01/22 13:03:54;;;;;;;1.57;0.73;;;7.00;99.90;;;;;;4975762;28;20244;-66
2022/01/22 13:06:25;;;;;;;1.23;0.60;;;7.00;99.90;;;;;;4973282;28;20594;-66
2022/01/22 13:09:13;;;;;;;0.70;0.53;;;7.00;99.90;;;;;;4975329;28;20722;-65
2022/01/22 13:11:47;;;;;;;1.00;0.70;;;7.10;99.90;;;;;;4991459;28;20337;-65
2022/01/22 13:14:16;;;;;;;2.47;0.90;;;7.10;99.90;;;;;;4989730;28;20735;-65
2022/01/22 13:16:51;;;;;;;1.33;0.67;;;7.10;99.90;;;;;;4988271;28;20246;-65
2022/01/22 13:19:19;;;;;;;1.80;0.73;;;7.10;99.90;;;;;;4992524;28;20302;-65
2022/01/22 13:21:52;;;;;;;2.20;0.60;;;7.10;99.90;;;;;;4989035;28;20260;-65
2022/01/22 13:24:25;;;;;;;1.87;0.80;;;7.00;99.90;;;;;;4993295;28;20264;-65
2022/01/22 13:26:58;;;;;;;3.40;0.90;;;7.00;99.90;;;;;;4990468;28;20238;-65
2022/01/22 13:29:29;;;;;;;3.60;0.90;;;7.00;99.90;;;;;;4991189;28;20237;-65
2022/01/22 13:32:10;;;;;;;1.67;0.80;;;7.00;99.90;;;;;;4988409;28;20249;-66
2022/01/22 13:49:18;;;;;;;4.07;0.83;;;6.80;99.90;;;;;;4991793;28;20253;-65
2022/01/22 13:51:48;;;;;;;2.40;0.63;;;6.80;99.90;;;;;;4988035;28;20300;-66
2022/01/22 13:54:18;;;;;;;5.60;0.90;;;6.70;99.90;;;;;;5001947;28;20256;-65
2022/01/22 13:56:51;;;;;;;3.30;0.80;;;6.70;99.90;;;;;;5000922;28;20280;-66
2022/01/22 13:59:21;;;;;;;4.20;0.60;;;6.70;99.90;;;;;;4999860;28;20264;-66
2022/01/22 14:02:04;;;;;;;2.70;0.97;;;6.70;99.90;;;;;;4985375;28;20252;-66
2022/01/22 14:04:42;;;;;;;3.73;1.00;;;6.70;99.90;;;;;;4986778;28;20237;-65
2022/01/22 14:07:23;;;;;;;3.67;0.77;;;6.70;99.90;;;;;;4987089;28;20253;-66
2022/01/22 14:10:05;;;;;;;2.53;0.60;;;6.80;99.90;;;;;;4986761;28;20252;-65
2022/01/22 14:12:49;;;;;;;1.80;1.00;;;6.80;99.90;;;;;;4985652;28;20249;-65
2022/01/22 14:15:29;;;;;;;3.30;1.00;;;6.80;99.90;;;;;;4986740;28;20308;-66
2022/01/22 14:18:14;;;;;;;3.83;1.20;;;6.80;99.90;;;;;;4986755;28;20273;-65
2022/01/22 14:20:45;;;;;;;1.97;0.57;;;6.70;99.90;;;;;;5000004;28;20245;-65
2022/01/22 14:23:15;;;;;;;3.33;0.60;;;6.70;99.90;;;;;;4997427;28;20285;-64
2022/01/22 14:25:59;;;;;;;5.00;0.60;;;6.70;99.90;;;;;;5000598;28;20268;-64
2022/01/22 14:28:39;;;;;;;3.83;0.90;;;6.70;99.90;;;;;;4998588;28;20254;-64
2022/01/22 14:31:28;;;;;;;2.43;0.50;;;6.70;99.90;;;;;;5000130;28;20352;-65
2022/01/22 14:33:58;;;;;;;1.73;0.60;;;6.60;99.90;;;;;;5001308;28;20331;-66
2022/01/22 14:36:30;;;;;;;2.10;0.50;;;6.60;99.90;;;;;;5000541;28;20781;-65
2022/01/22 14:39:14;;;;;;;5.30;1.20;;;6.60;99.90;;;;;;4999392;28;20571;-64
2022/01/22 14:44:37;;;;;;;3.33;1.30;;;6.60;99.90;;;;;;4968976;28;20277;-66
2022/01/22 14:47:12;;;;;;;2.37;0.90;;;6.70;99.90;;;;;;4978050;28;20292;-66
2022/01/22 14:49:46;;;;;;;2.20;0.67;;;6.70;99.90;;;;;;4990045;28;20249;-66
2022/01/22 14:52:19;;;;;;;2.00;0.80;;;6.60;99.90;;;;;;4988508;28;20253;-66
2022/01/22 14:54:51;;;;;;;1.87;0.97;;;6.60;99.90;;;;;;4989892;28;20237;-66
2022/01/22 14:57:22;;;;;;;3.67;0.80;;;6.60;99.90;;;;;;4988111;28;20329;-66
2022/01/22 14:59:50;;;;;;;1.47;0.70;;;6.60;99.90;;;;;;4985593;28;20654;-66
2022/01/22 15:02:19;;;;;;;1.10;0.80;;;6.60;99.90;;;;;;4989603;28;20230;-66
2022/01/22 15:04:51;;;;;;;2.40;0.70;;;6.60;99.90;;;;;;4985242;28;20237;-66
2022/01/22 15:07:20;;;;;;;2.50;0.70;;;6.50;99.90;;;;;;4988957;28;20245;-66